Time;durP1;ratioP1;P1;durP2;ratioP2;P2;SDS_P1;SDS_P2;PMS_P1;PMS_P2;Temp;Humidity;BMP_temperature;BMP_pressure;BME280_temperature;BME280_humidity;BME280_pressure;Samples;Min_cycle;Max_cycle;Signal;HPM_P1;HPM_P2
2023/03/29 00:03:50;;;;;;;5.53;3.87;;;;;;;2.98;40.45;100590.25;7633504;32;39318;-81
2023/03/29 00:08:08;;;;;;;8.90;4.43;;;;;;;3.23;40.54;100590.53;7633698;32;39770;-80
2023/03/29 00:12:25;;;;;;;6.68;3.65;;;;;;;3.06;41.62;100592.75;7614766;32;37643;-80
2023/03/29 00:16:43;;;;;;;4.22;3.30;;;;;;;2.98;45.41;100593.78;7607228;32;37645;-82
2023/03/29 00:21:00;;;;;;;6.25;3.35;;;;;;;2.79;41.93;100581.91;7607798;32;38293;-81
2023/03/29 00:25:17;;;;;;;4.20;3.35;;;;;;;2.86;41.23;100592.69;7607069;32;39960;-83
2023/03/29 00:29:33;;;;;;;3.42;3.10;;;;;;;2.75;40.99;100595.97;7607069;32;37915;-82
2023/03/29 00:33:49;;;;;;;3.40;3.00;;;;;;;2.71;41.01;100592.00;7633159;32;36797;-82
2023/03/29 00:38:06;;;;;;;5.78;4.05;;;;;;;2.90;40.49;100593.94;7633188;32;39419;-82
2023/03/29 00:42:24;;;;;;;3.90;3.10;;;;;;;2.90;40.91;100588.56;7615455;32;40104;-82
2023/03/29 00:46:40;;;;;;;5.35;3.42;;;;;;;3.00;40.77;100582.78;7606886;32;38678;-82
2023/03/29 00:51:06;;;;;;;3.55;3.20;;;;;;;2.89;41.00;100580.69;7614087;32;37379;-82
2023/03/29 00:55:28;;;;;;;5.62;3.50;;;;;;;2.98;41.43;100574.94;7643440;32;40173;-83
2023/03/29 00:59:45;;;;;;;4.37;3.30;;;;;;;2.88;41.19;100574.47;7639945;32;40802;-82
2023/03/29 01:04:05;;;;;;;5.55;3.50;;;;;;;2.74;41.00;100573.59;7606762;32;37732;-82
2023/03/29 01:08:30;;;;;;;4.75;3.05;;;;;;;2.94;41.19;100570.97;7617763;32;36958;-82
2023/03/29 01:12:50;;;;;;;6.35;3.00;;;;;;;2.76;41.99;100566.16;7639491;32;40222;-82
2023/03/29 01:17:06;;;;;;;5.30;3.62;;;;;;;2.79;42.07;100556.81;7632560;32;41062;-83
2023/03/29 01:21:50;;;;;;;6.75;3.75;;;;;;;2.83;41.88;100558.09;7618918;32;38276;-82
2023/03/29 01:26:15;;;;;;;4.18;3.65;;;;;;;2.75;42.58;100558.25;7606591;32;37867;-82
2023/03/29 01:30:48;;;;;;;6.97;3.87;;;;;;;2.70;42.88;100556.16;7613995;32;39471;-82
2023/03/29 01:35:09;;;;;;;5.55;3.70;;;;;;;2.43;43.96;100555.22;7642827;32;39975;-83
2023/03/29 01:39:26;;;;;;;7.65;4.30;;;;;;;2.31;44.78;100557.66;7630023;32;38071;-80
2023/03/29 01:43:48;;;;;;;6.05;4.55;;;;;;;2.47;44.07;100561.88;7606415;32;37081;-82
2023/03/29 01:48:15;;;;;;;8.35;4.40;;;;;;;2.24;44.59;100557.62;7606428;32;39281;-82
2023/03/29 01:52:37;;;;;;;5.10;3.20;;;;;;;2.47;43.78;100555.63;7615070;32;40608;-82
2023/03/29 01:56:55;;;;;;;4.12;3.75;;;;;;;2.32;44.16;100563.88;7617690;32;38018;-81
2023/03/29 02:01:16;;;;;;;4.97;3.60;;;;;;;2.10;44.40;100569.31;7627185;32;37037;-82
2023/03/29 02:05:33;;;;;;;5.57;4.03;;;;;;;2.31;44.15;100567.56;7632421;32;40156;-82
2023/03/29 02:09:51;;;;;;;8.23;3.80;;;;;;;1.87;45.36;100556.13;7640128;32;39695;-83
2023/03/29 02:14:08;;;;;;;7.12;4.20;;;;;;;1.85;45.81;100559.00;7605676;32;37989;-82
2023/03/29 02:18:25;;;;;;;8.40;4.00;;;;;;;1.78;45.76;100563.50;7606134;32;38171;-83
2023/03/29 02:22:50;;;;;;;4.70;3.97;;;;;;;1.60;46.18;100569.34;7625747;32;40042;-83
2023/03/29 02:27:06;;;;;;;5.03;3.92;;;;;;;1.65;46.30;100566.09;7642509;32;39956;-83
2023/03/29 02:31:29;;;;;;;6.78;3.97;;;;;;;1.61;46.68;100570.19;7619773;32;37878;-82
2023/03/29 02:36:01;;;;;;;5.33;3.83;;;;;;;1.86;46.00;100570.59;7616819;32;37799;-83
2023/03/29 02:40:18;;;;;;;8.00;4.70;;;;;;;1.83;46.30;100573.69;7620466;32;39314;-82
2023/03/29 02:44:38;;;;;;;7.93;4.15;;;;;;;1.76;46.59;100580.84;7642650;32;40951;-82
2023/03/29 02:48:56;;;;;;;5.18;3.80;;;;;;;1.64;46.94;100583.25;7631608;32;37869;-83
2023/03/29 02:53:17;;;;;;;8.48;4.68;;;;;;;1.26;47.76;100584.34;7619272;32;37891;-82
2023/03/29 02:57:37;;;;;;;8.27;4.43;;;;;;;1.45;47.33;100582.87;7616097;32;39927;-82
2023/03/29 03:01:53;;;;;;;9.68;4.80;;;;;;;1.69;46.79;100578.09;7619689;32;40790;-83
2023/03/29 03:06:11;;;;;;;7.35;4.05;;;;;;;1.64;47.04;100583.25;7631024;32;38079;-83
2023/03/29 03:10:27;;;;;;;6.45;4.53;;;;;;;1.71;46.70;100589.50;7625261;32;37108;-82
2023/03/29 03:14:43;;;;;;;6.82;4.43;;;;;;;1.84;46.06;100594.16;7628913;32;40235;-82
2023/03/29 03:19:00;;;;;;;7.97;4.40;;;;;;;1.78;46.13;100595.78;7642086;32;40505;-81
2023/03/29 03:23:17;;;;;;;9.35;4.28;;;;;;;1.74;45.97;100588.28;7618801;32;38092;-82
2023/03/29 03:27:33;;;;;;;7.82;4.28;;;;;;;1.80;45.76;100585.66;7604880;32;36929;-82
2023/03/29 03:31:51;;;;;;;8.10;4.30;;;;;;;1.78;45.72;100589.56;7617937;32;40042;-83
2023/03/29 03:36:10;;;;;;;5.80;4.00;;;;;;;1.78;45.73;100589.56;7641207;32;39946;-82
2023/03/29 03:40:26;;;;;;;6.97;4.35;;;;;;;1.75;45.82;100592.66;7608323;32;38819;-82
2023/03/29 03:44:43;;;;;;;4.95;4.07;;;;;;;1.64;46.10;100584.06;7630463;32;37049;-82
2023/03/29 03:49:00;;;;;;;8.00;4.50;;;;;;;1.56;46.46;100586.06;7630300;32;39304;-83
2023/03/29 03:53:17;;;;;;;12.95;4.10;;;;;;;1.59;46.40;100583.81;7607840;32;39903;-82
2023/03/29 03:57:36;;;;;;;7.87;4.15;;;;;;;1.22;47.41;100598.34;7604034;32;38140;-82
2023/03/29 04:01:52;;;;;;;6.75;4.45;;;;;;;1.21;47.71;100583.22;7617086;32;37014;-84
2023/03/29 04:06:10;;;;;;;8.60;4.30;;;;;;;1.34;47.30;100588.75;7641081;32;39410;-83
2023/03/29 04:10:26;;;;;;;5.62;4.40;;;;;;;1.47;46.94;100586.19;7622408;32;40879;-84
2023/03/29 04:14:42;;;;;;;6.20;4.25;;;;;;;1.15;47.83;100587.53;7603298;32;38615;-83
2023/03/29 04:18:58;;;;;;;8.55;4.40;;;;;;;1.22;47.06;100579.53;7603586;32;37106;-83
2023/03/29 04:23:15;;;;;;;11.57;4.68;;;;;;;1.23;47.26;100587.41;7627349;32;39323;-84
2023/03/29 04:27:31;;;;;;;7.90;4.55;;;;;;;1.29;47.65;100586.66;7632929;32;40017;-83
2023/03/29 04:31:48;;;;;;;7.03;4.60;;;;;;;1.10;48.85;100582.75;7620962;32;37889;-83
2023/03/29 04:36:05;;;;;;;8.48;4.93;;;;;;;1.14;49.21;100583.19;7606974;32;37222;-84
2023/03/29 04:40:22;;;;;;;8.80;4.50;;;;;;;1.18;49.41;100578.28;7612741;32;39373;-82
2023/03/29 04:44:39;;;;;;;8.32;4.95;;;;;;;1.40;49.39;100582.63;7633033;32;39992;-82
2023/03/29 04:48:55;;;;;;;7.68;4.78;;;;;;;1.33;49.92;100581.72;7632957;32;37921;-83
2023/03/29 04:53:11;;;;;;;12.75;6.15;;;;;;;1.53;49.76;100583.75;7609651;32;37099;-81
2023/03/29 04:57:28;;;;;;;16.08;6.80;;;;;;;1.43;50.36;100582.25;7607032;32;39570;-83
2023/03/29 05:01:44;;;;;;;15.55;7.72;;;;;;;1.45;50.50;100590.09;7620270;32;40942;-83
2023/03/29 05:06:05;;;;;;;25.70;9.30;;;;;;;1.58;50.42;100597.44;7632649;32;38118;-84
2023/03/29 05:10:22;;;;;;;9.73;5.18;;;;;;;1.45;51.10;100601.69;7624490;32;36745;-82
2023/03/29 05:14:38;;;;;;;10.38;5.85;;;;;;;1.61;51.60;100602.44;7606493;32;39394;-83
2023/03/29 05:18:58;;;;;;;9.52;5.43;;;;;;;1.64;52.05;100602.06;7606577;32;40773;-82
2023/03/29 05:23:16;;;;;;;39.35;16.25;;;;;;;1.50;53.29;100607.31;7632011;32;38571;-83
2023/03/29 05:27:32;;;;;;;41.33;18.23;;;;;;;1.66;53.14;100608.91;7632529;32;37428;-83
2023/03/29 05:31:49;;;;;;;29.73;12.32;;;;;;;1.44;54.11;100594.62;7615640;32;40237;-83
2023/03/29 05:36:13;;;;;;;24.75;9.65;;;;;;;1.58;54.32;100594.78;7617264;32;39722;-83
2023/03/29 05:40:30;;;;;;;18.52;8.32;;;;;;;1.72;54.22;100596.53;7624821;32;38572;-82
2023/03/29 05:44:47;;;;;;;11.73;6.10;;;;;;;1.99;53.54;100602.16;7632172;32;36853;-82
2023/03/29 05:49:03;;;;;;;13.15;6.97;;;;;;;1.98;53.54;100597.78;7631987;32;40070;-83
2023/03/29 05:53:21;;;;;;;16.35;7.18;;;;;;;2.17;53.19;100599.78;7642896;32;39841;-82
2023/03/29 05:57:38;;;;;;;10.23;5.28;;;;;;;2.15;53.10;100601.81;7630939;32;37753;-83
2023/03/29 06:01:54;;;;;;;8.50;5.07;;;;;;;2.38;52.78;100596.19;7617854;32;37183;-83
2023/03/29 06:06:11;;;;;;;8.90;4.85;;;;;;;2.35;51.78;100603.84;7632011;32;40112;-83
2023/03/29 06:10:27;;;;;;;8.40;4.90;;;;;;;2.43;50.82;100603.66;7631986;32;40852;-82
2023/03/29 06:14:44;;;;;;;9.10;5.72;;;;;;;2.49;50.66;100619.03;7620684;32;37721;-83
2023/03/29 06:19:00;;;;;;;9.10;5.93;;;;;;;2.73;50.13;100614.19;7605487;32;37115;-83
2023/03/29 06:23:18;;;;;;;18.12;7.40;;;;;;;2.92;49.61;100626.91;7616936;32;39358;-83
2023/03/29 06:27:35;;;;;;;11.27;6.47;;;;;;;2.98;48.69;100618.03;7630849;32;40023;-82
2023/03/29 06:31:52;;;;;;;13.10;6.40;;;;;;;3.21;47.88;100627.63;7626741;32;38476;-83
2023/03/29 06:36:10;;;;;;;13.60;7.12;;;;;;;3.31;46.96;100622.69;7606168;32;38247;-84
2023/03/29 06:40:27;;;;;;;10.52;6.10;;;;;;;3.33;47.22;100630.56;7605540;32;40050;-82
2023/03/29 06:44:43;;;;;;;11.60;6.60;;;;;;;3.60;46.31;100631.44;7628173;32;40788;-83
2023/03/29 06:49:00;;;;;;;10.27;6.62;;;;;;;3.69;46.79;100630.22;7630697;32;38736;-82
2023/03/29 06:53:18;;;;;;;12.23;6.35;;;;;;;3.69;47.40;100635.62;7617933;32;37248;-82
2023/03/29 06:57:35;;;;;;;12.63;6.62;;;;;;;3.89;46.53;100637.50;7605409;32;39347;-81
2023/03/29 07:01:52;;;;;;;15.07;6.87;;;;;;;3.82;46.20;100640.19;7605112;32;40861;-81
2023/03/29 07:06:09;;;;;;;15.13;6.80;;;;;;;3.90;46.06;100645.38;7619790;32;38849;-82
2023/03/29 07:10:32;;;;;;;13.10;6.45;;;;;;;4.31;45.15;100640.78;7605165;32;36062;-74
2023/03/29 07:14:48;;;;;;;11.90;5.75;;;;;;;4.61;50.15;100648.44;7604626;32;39471;-81
2023/03/29 07:19:05;;;;;;;12.40;5.80;;;;;;;4.79;43.15;100655.84;7612343;32;40183;-81
2023/03/29 07:23:21;;;;;;;12.82;6.32;;;;;;;4.53;44.38;100667.56;7631821;32;38183;-82
2023/03/29 07:27:40;;;;;;;12.23;6.32;;;;;;;4.65;44.29;100665.88;7631133;32;37837;-81
2023/03/29 07:31:56;;;;;;;12.52;6.32;;;;;;;4.89;44.23;100662.47;7618902;32;39194;-83
2023/03/29 07:36:14;;;;;;;13.48;5.57;;;;;;;4.89;43.60;100658.94;7624936;32;39947;-82
2023/03/29 07:40:30;;;;;;;9.18;5.40;;;;;;;5.08;41.89;100655.31;7620208;32;38031;-83
2023/03/29 07:44:47;;;;;;;10.05;4.80;;;;;;;5.52;40.74;100660.94;7604269;32;37145;-82
2023/03/29 07:49:04;;;;;;;9.57;4.53;;;;;;;5.88;38.70;100673.00;7615187;32;39481;-82
2023/03/29 07:53:20;;;;;;;11.32;4.93;;;;;;;5.33;38.91;100676.25;7608024;32;40873;-83
2023/03/29 07:57:37;;;;;;;10.40;5.22;;;;;;;5.75;39.47;100675.78;7629370;32;38875;-84
2023/03/29 08:01:54;;;;;;;9.43;5.18;;;;;;;6.12;38.09;100670.53;7644568;32;37316;-83
2023/03/29 08:06:10;;;;;;;11.18;4.93;;;;;;;6.05;36.63;100675.19;7633469;32;40029;-83
2023/03/29 08:10:27;;;;;;;8.25;4.20;;;;;;;6.04;35.75;100671.66;7633222;32;40151;-81
2023/03/29 08:14:43;;;;;;;8.70;4.00;;;;;;;6.15;34.21;100667.41;7632490;32;38684;-82
2023/03/29 08:18:59;;;;;;;6.75;4.00;;;;;;;6.43;33.78;100660.69;7632763;32;37711;-81
2023/03/29 08:23:16;;;;;;;7.18;3.90;;;;;;;6.17;35.28;100668.00;7633346;32;39050;-81
2023/03/29 08:27:33;;;;;;;8.98;4.30;;;;;;;5.92;34.49;100668.81;7633255;32;40718;-80
2023/03/29 08:31:49;;;;;;;6.80;3.60;;;;;;;6.71;34.68;100661.03;7633008;32;39276;-81
2023/03/29 08:36:06;;;;;;;8.27;4.03;;;;;;;6.65;33.58;100653.78;7633163;32;36870;-82
2023/03/29 08:40:25;;;;;;;6.47;3.83;;;;;;;6.38;33.09;100651.38;7633083;32;40095;-82
2023/03/29 08:45:08;;;;;;;7.20;4.25;;;;;;;6.58;33.84;100661.16;7644252;32;39962;-83
2023/03/29 08:49:27;;;;;;;7.00;4.43;;;;;;;6.46;34.45;100654.84;7631412;32;38662;-82
2023/03/29 08:53:49;;;;;;;9.88;4.37;;;;;;;6.58;33.22;100658.47;7629210;32;36874;-82
2023/03/29 08:58:10;;;;;;;10.38;4.90;;;;;;;6.99;33.79;100643.41;7617318;32;40253;-81
2023/03/29 09:02:30;;;;;;;8.73;4.25;;;;;;;7.08;32.70;100636.63;7606972;32;39957;-77
2023/03/29 09:06:47;;;;;;;9.18;3.80;;;;;;;7.19;36.52;100640.44;7617554;32;38693;-83
2023/03/29 09:11:37;;;;;;;10.27;4.60;;;;;;;7.17;31.75;100634.41;7603175;32;36949;-80
2023/03/29 09:16:26;;;;;;;5.00;3.40;;;;;;;6.67;32.06;100631.91;7604055;32;39446;-81
2023/03/29 09:20:51;;;;;;;9.18;3.65;;;;;;;7.41;31.85;100619.06;7601366;32;40013;-81
2023/03/29 09:25:25;;;;;;;8.02;3.72;;;;;;;7.53;32.04;100600.94;7605968;32;38686;-80
2023/03/29 09:30:05;;;;;;;6.43;3.40;;;;;;;7.88;31.53;100599.34;7616909;32;38031;-83
2023/03/29 09:34:29;;;;;;;9.38;3.70;;;;;;;8.19;31.28;100592.78;7606350;32;39459;-83
2023/03/29 09:38:52;;;;;;;5.65;3.33;;;;;;;8.15;29.13;100591.59;7616799;32;39704;-82
2023/03/29 09:43:12;;;;;;;;;;;;;;;7.98;29.90;100598.78;7606623;32;37879;-83
2023/03/29 09:48:04;;;;;;;5.57;3.47;;;;;;;8.25;29.77;100589.13;7606484;32;37585;-83
2023/03/29 09:52:20;;;;;;;4.07;3.00;;;;;;;8.38;27.71;100587.22;7613715;32;39933;-83
2023/03/29 09:56:37;;;;;;;5.28;3.15;;;;;;;8.71;28.50;100567.59;7606015;32;41015;-83
2023/03/29 10:00:57;;;;;;;4.70;2.97;;;;;;;9.16;28.38;100574.19;7617660;32;38687;-83
2023/03/29 10:05:15;;;;;;;7.75;3.20;;;;;;;9.71;28.47;100557.19;7626330;32;37062;-84
2023/03/29 10:09:34;;;;;;;4.72;3.00;;;;;;;10.21;26.17;100550.03;7631773;32;39007;-82
2023/03/29 10:13:56;;;;;;;9.52;3.47;;;;;;;9.49;26.84;100554.34;7631218;32;39932;-82
2023/03/29 10:18:13;;;;;;;4.62;2.80;;;;;;;10.19;26.22;100551.34;7627751;32;37804;-82
2023/03/29 10:22:36;;;;;;;7.43;2.97;;;;;;;10.60;25.47;100535.59;7612354;32;37714;-81
2023/03/29 10:26:56;;;;;;;10.45;3.10;;;;;;;10.83;26.06;100535.31;7631411;32;39302;-81
2023/03/29 10:31:19;;;;;;;5.72;3.55;;;;;;;10.84;26.18;100527.97;7625778;32;39940;-81
2023/03/29 10:35:40;;;;;;;9.50;3.67;;;;;;;10.52;25.38;100532.22;7605523;32;37593;-82
2023/03/29 10:39:57;;;;;;;6.03;3.28;;;;;;;10.14;25.92;100535.75;7606321;32;36175;-80
2023/03/29 10:44:56;;;;;;;7.00;3.22;;;;;;;10.55;25.93;100532.78;7626002;32;40087;-80
2023/03/29 10:49:19;;;;;;;7.50;3.10;;;;;;;10.57;25.37;100522.44;7622811;32;39911;-80
2023/03/29 10:53:36;;;;;;;7.05;2.67;;;;;;;11.08;24.50;100515.66;7632160;32;38594;-81
2023/03/29 10:58:02;;;;;;;5.50;2.55;;;;;;;11.57;24.03;100512.03;7624882;32;37292;-81
2023/03/29 11:02:33;;;;;;;4.65;2.50;;;;;;;11.87;24.01;100496.94;7614969;32;40031;-81
2023/03/29 11:07:09;;;;;;;6.03;2.80;;;;;;;12.07;24.49;100489.97;7614364;32;40856;-81
2023/03/29 11:11:42;;;;;;;4.35;2.78;;;;;;;11.98;23.92;100489.66;7630619;32;37627;-79
2023/03/29 11:16:24;;;;;;;4.47;2.50;;;;;;;11.61;25.33;100487.75;7630749;32;37180;-81
2023/03/29 11:21:22;;;;;;;9.98;4.53;;;;;;;11.93;24.26;100487.72;7630961;32;40167;-74
2023/03/29 11:25:59;;;;;;;5.57;3.00;;;;;;;11.81;30.57;100476.97;7630773;32;40890;-81
2023/03/29 11:30:27;;;;;;;5.82;2.67;;;;;;;12.31;24.49;100466.59;7623388;32;38769;-82
2023/03/29 11:35:22;;;;;;;4.20;2.65;;;;;;;12.23;26.01;100467.13;7632565;32;37810;-80
2023/03/29 11:40:09;;;;;;;6.03;2.50;;;;;;;11.92;26.07;100460.69;7631357;32;39422;-79
2023/03/29 11:44:30;;;;;;;6.12;2.97;;;;;;;11.62;26.05;100457.44;7629407;32;39992;-80
2023/03/29 11:49:13;;;;;;;3.60;2.65;;;;;;;11.59;24.93;100449.78;7632743;32;37603;-82
2023/03/29 11:53:50;;;;;;;9.88;2.72;;;;;;;10.77;26.44;100456.44;7630592;32;37300;-80
2023/03/29 11:58:26;;;;;;;6.85;2.75;;;;;;;11.55;25.74;100437.72;7631713;32;40039;-81
2023/03/29 12:02:51;;;;;;;8.00;3.10;;;;;;;11.51;27.13;100433.87;7631041;32;40881;-81
2023/03/29 12:07:26;;;;;;;5.12;2.70;;;;;;;11.65;26.73;100437.78;7632281;32;37723;-81
2023/03/29 12:11:51;;;;;;;6.37;2.87;;;;;;;11.08;27.35;100430.25;7632588;32;37049;-81
2023/03/29 12:16:19;;;;;;;5.85;3.12;;;;;;;11.81;27.06;100426.97;7631939;32;39346;-81
2023/03/29 12:20:38;;;;;;;7.12;2.97;;;;;;;12.30;26.68;100399.34;7632132;32;40636;-82
2023/03/29 12:24:56;;;;;;;6.75;3.05;;;;;;;12.59;25.40;100387.94;7632236;32;38885;-82
2023/03/29 12:29:24;;;;;;;5.35;2.75;;;;;;;13.19;24.29;100381.94;7633483;32;37376;-81
2023/03/29 12:33:59;;;;;;;8.10;3.05;;;;;;;13.55;24.67;100377.28;7633325;32;39328;-82
2023/03/29 12:38:21;;;;;;;5.72;3.03;;;;;;;14.71;23.26;100380.91;7633383;32;40699;-80
2023/03/29 12:43:01;;;;;;;6.97;2.62;;;;;;;14.14;22.93;100372.94;7633285;32;37672;-81
2023/03/29 12:47:22;;;;;;;8.38;3.00;;;;;;;14.00;23.58;100369.19;7632519;32;37827;-81
2023/03/29 12:51:41;;;;;;;6.40;3.00;;;;;;;13.62;23.52;100374.25;7632340;32;39393;-81
2023/03/29 12:56:07;;;;;;;6.70;2.60;;;;;;;14.23;23.95;100365.81;7632149;32;41478;-81
2023/03/29 13:00:43;;;;;;;4.60;2.20;;;;;;;15.26;22.27;100365.06;7633144;32;37792;-81
2023/03/29 13:05:03;;;;;;;6.65;3.28;;;;;;;15.28;21.62;100354.63;7633152;32;37902;-81
2023/03/29 13:09:21;;;;;;;7.78;2.50;;;;;;;16.23;20.91;100351.34;7631793;32;39118;-80
2023/03/29 13:13:41;;;;;;;5.43;2.45;;;;;;;15.90;20.48;100345.72;7632680;32;39603;-82
2023/03/29 13:18:10;;;;;;;5.40;2.80;;;;;;;15.51;22.76;100338.47;7631707;32;37741;-81
2023/03/29 13:22:50;;;;;;;20.15;11.90;;;;;;;15.73;21.86;100325.03;7632842;32;37033;-81
2023/03/29 13:27:24;;;;;;;12.75;5.07;;;;;;;14.76;21.94;100335.06;7633217;32;39145;-81
2023/03/29 13:31:59;;;;;;;10.88;5.18;;;;;;;14.96;22.72;100334.03;7631545;32;40766;-82
2023/03/29 13:36:39;;;;;;;5.20;3.78;;;;;;;15.03;22.15;100334.53;7632365;32;37963;-81
2023/03/29 13:41:06;;;;;;;4.80;2.50;;;;;;;14.66;21.83;100326.91;7631539;32;37609;-81
2023/03/29 13:45:24;;;;;;;5.65;2.20;;;;;;;14.36;22.54;100325.94;7631409;32;40103;-81
2023/03/29 13:49:42;;;;;;;2.55;2.00;;;;;;;13.65;22.86;100321.66;7632394;32;38991;-82
2023/03/29 13:54:20;;;;;;;6.37;2.30;;;;;;;14.55;22.06;100323.34;7632179;32;37915;-82
2023/03/29 13:58:42;;;;;;;6.50;2.25;;;;;;;14.02;21.96;100326.69;7631356;32;38029;-81
2023/03/29 14:03:02;;;;;;;5.55;2.55;;;;;;;13.58;22.27;100312.91;7632393;32;39307;-81
2023/03/29 14:07:25;;;;;;;6.22;2.60;;;;;;;13.37;22.52;100312.16;7632328;32;40004;-81
2023/03/29 14:11:44;;;;;;;3.42;2.22;;;;;;;13.72;22.41;100302.97;7632215;32;38447;-81
2023/03/29 14:16:03;;;;;;;4.12;2.37;;;;;;;14.22;23.17;100298.34;7630830;32;37171;-82
2023/03/29 14:20:22;;;;;;;5.87;2.35;;;;;;;12.99;23.01;100297.91;7632226;32;39314;-81
2023/03/29 14:24:46;;;;;;;4.18;2.08;;;;;;;13.84;22.92;100295.25;7632108;32;39988;-81
2023/03/29 14:29:03;;;;;;;4.85;2.55;;;;;;;13.88;22.20;100287.28;7632006;32;37992;-80
2023/03/29 14:33:27;;;;;;;5.70;2.47;;;;;;;13.90;23.45;100288.66;7630696;32;37769;-82
2023/03/29 14:37:45;;;;;;;5.15;2.40;;;;;;;13.85;23.53;100288.69;7632076;32;38346;-82
2023/03/29 14:42:01;;;;;;;5.12;2.62;;;;;;;13.64;23.52;100285.22;7631746;32;39891;-82
2023/03/29 14:46:20;;;;;;;7.72;2.28;;;;;;;13.41;25.04;100281.16;7631750;32;37803;-82
2023/03/29 14:50:37;;;;;;;6.00;2.90;;;;;;;13.23;23.87;100279.84;7631777;32;37956;-82
2023/03/29 14:54:58;;;;;;;4.07;2.40;;;;;;;13.71;24.67;100272.03;7632046;32;37318;-82
2023/03/29 14:59:36;;;;;;;3.85;2.22;;;;;;;14.12;23.87;100265.50;7630540;32;39869;-82
2023/03/29 15:04:00;;;;;;;5.47;2.40;;;;;;;13.90;24.06;100264.00;7631501;32;38861;-84
2023/03/29 15:08:31;;;;;;;10.75;2.72;;;;;;;14.17;22.97;100262.72;7630683;32;37856;-82
2023/03/29 15:12:49;;;;;;;7.40;2.70;;;;;;;13.82;23.81;100261.84;7630297;32;40201;-81
2023/03/29 15:17:32;;;;;;;11.27;2.33;;;;;;;14.09;23.87;100257.87;7629821;32;40909;-81
2023/03/29 15:22:09;;;;;;;3.97;2.25;;;;;;;13.77;22.58;100256.38;7630913;32;38080;-81
2023/03/29 15:26:30;;;;;;;7.72;2.97;;;;;;;13.81;23.88;100248.41;7629888;32;37270;-82
2023/03/29 15:30:48;;;;;;;6.30;2.70;;;;;;;13.67;24.30;100251.75;7630158;32;39401;-82
2023/03/29 15:35:25;;;;;;;6.20;2.65;;;;;;;13.76;23.48;100251.19;7630699;32;39930;-82
2023/03/29 15:39:42;;;;;;;5.32;2.47;;;;;;;13.37;23.02;100249.97;7630400;32;37962;-82
2023/03/29 15:43:59;;;;;;;5.22;2.70;;;;;;;13.33;24.19;100244.25;7629216;32;37021;-83
2023/03/29 15:48:18;;;;;;;4.68;2.47;;;;;;;13.26;24.98;100243.69;7630369;32;40043;-82
2023/03/29 15:52:35;;;;;;;7.43;2.60;;;;;;;13.01;24.45;100236.34;7629077;32;40017;-83
2023/03/29 15:57:00;;;;;;;7.20;2.67;;;;;;;12.98;25.60;100225.97;7630062;32;38642;-81
2023/03/29 16:01:36;;;;;;;7.07;2.90;;;;;;;12.85;25.32;100232.00;7630130;32;37917;-81
2023/03/29 16:05:55;;;;;;;5.40;2.80;;;;;;;12.03;27.61;100230.09;7629942;32;40174;-84
2023/03/29 16:10:11;;;;;;;7.50;3.47;;;;;;;11.32;29.79;100238.84;7629869;32;39731;-82
2023/03/29 16:14:31;;;;;;;7.72;3.35;;;;;;;11.21;30.66;100233.34;7629436;32;38860;-83
2023/03/29 16:18:49;;;;;;;5.45;3.10;;;;;;;11.28;31.34;100233.91;7629735;32;37156;-83
2023/03/29 16:23:10;;;;;;;5.40;2.67;;;;;;;10.76;31.86;100242.84;7632712;32;39473;-82
2023/03/29 16:27:26;;;;;;;5.68;3.35;;;;;;;10.18;32.31;100248.09;7633412;32;40837;-82
2023/03/29 16:31:44;;;;;;;6.50;3.08;;;;;;;10.32;32.23;100240.34;7633275;32;38272;-82
2023/03/29 16:36:03;;;;;;;7.90;3.45;;;;;;;10.42;32.47;100247.81;7633318;32;37850;-83
2023/03/29 16:40:19;;;;;;;4.65;2.87;;;;;;;10.54;32.93;100234.81;7633330;32;39140;-82
2023/03/29 16:44:36;;;;;;;8.30;3.60;;;;;;;10.42;32.54;100235.00;7633229;32;39866;-81
2023/03/29 16:48:52;;;;;;;7.45;3.10;;;;;;;10.10;33.18;100243.91;7633030;32;37899;-82
2023/03/29 16:53:09;;;;;;;6.43;3.37;;;;;;;10.46;32.44;100238.00;7633153;32;37432;-83
2023/03/29 16:57:27;;;;;;;6.85;3.37;;;;;;;10.41;32.50;100237.97;7633097;32;39200;-82
2023/03/29 17:01:44;;;;;;;4.95;3.37;;;;;;;9.86;33.87;100253.47;7632980;32;40026;-83
2023/03/29 17:06:02;;;;;;;8.73;2.90;;;;;;;10.05;33.15;100249.31;7632887;32;37909;-83
2023/03/29 17:10:18;;;;;;;7.55;3.00;;;;;;;10.25;33.31;100239.72;7631751;32;37114;-82
2023/03/29 17:14:35;;;;;;;6.05;3.28;;;;;;;10.15;33.64;100238.53;7632668;32;40241;-83
2023/03/29 17:18:51;;;;;;;9.70;3.62;;;;;;;9.65;34.28;100236.91;7632908;32;40004;-83
2023/03/29 17:23:07;;;;;;;9.63;3.60;;;;;;;9.97;33.57;100230.72;7632820;32;38571;-83
2023/03/29 17:27:24;;;;;;;7.72;3.42;;;;;;;10.20;33.34;100236.94;7632702;32;36782;-83
2023/03/29 17:31:46;;;;;;;7.25;3.17;;;;;;;9.92;34.02;100256.00;7632222;32;39331;-83
2023/03/29 17:36:04;;;;;;;6.67;3.10;;;;;;;10.41;32.67;100238.78;7632930;32;40960;-83
2023/03/29 17:40:21;;;;;;;10.48;3.50;;;;;;;10.41;32.88;100251.59;7632719;32;37105;-82
2023/03/29 17:44:38;;;;;;;8.20;3.35;;;;;;;10.67;32.72;100249.91;7616971;32;37689;-83
2023/03/29 17:48:54;;;;;;;8.82;4.30;;;;;;;10.85;32.96;100240.50;7615603;32;39937;-81
2023/03/29 17:53:12;;;;;;;10.50;4.37;;;;;;;10.98;32.56;100250.13;7632297;32;40806;-81
2023/03/29 17:57:30;;;;;;;6.35;3.55;;;;;;;10.96;32.27;100253.09;7631512;32;37955;-81
2023/03/29 18:01:46;;;;;;;7.10;3.28;;;;;;;11.12;32.19;100245.81;7632390;32;37878;-81
2023/03/29 18:06:04;;;;;;;7.80;3.28;;;;;;;11.20;30.94;100258.97;7632395;32;39349;-85
2023/03/29 18:10:20;;;;;;;8.98;3.95;;;;;;;11.07;32.30;100276.66;7631070;32;39998;-84
2023/03/29 18:14:37;;;;;;;9.93;4.43;;;;;;;10.95;33.32;100278.75;7631639;32;37937;-83
2023/03/29 18:18:53;;;;;;;9.57;4.10;;;;;;;10.70;35.54;100284.81;7624995;32;35414;-83
2023/03/29 18:23:09;;;;;;;9.43;4.22;;;;;;;10.71;35.54;100287.28;7627490;32;40231;-82
2023/03/29 18:27:25;;;;;;;9.05;3.95;;;;;;;10.66;36.73;100291.91;7632087;32;40818;-82
2023/03/29 18:31:42;;;;;;;7.12;3.70;;;;;;;10.53;37.85;100298.59;7618323;32;38584;-81
2023/03/29 18:35:58;;;;;;;7.50;3.78;;;;;;;10.60;38.16;100312.00;7617361;32;37077;-82
2023/03/29 18:40:19;;;;;;;10.35;4.72;;;;;;;10.55;38.83;100312.78;7630366;32;40140;-82
2023/03/29 18:44:35;;;;;;;8.88;4.40;;;;;;;10.42;39.16;100302.31;7629531;32;39977;-82
2023/03/29 18:48:52;;;;;;;9.82;5.37;;;;;;;10.59;39.25;100296.72;7630705;32;38068;-83
2023/03/29 18:53:08;;;;;;;11.10;4.82;;;;;;;10.42;40.29;100292.22;7631785;32;37164;-82
2023/03/29 18:57:24;;;;;;;10.20;4.97;;;;;;;10.30;40.50;100303.25;7631500;32;40310;-82
2023/03/29 19:01:40;;;;;;;9.18;4.70;;;;;;;10.20;40.70;100305.88;7631516;32;40123;-83
2023/03/29 19:05:57;;;;;;;11.43;5.10;;;;;;;10.39;40.42;100305.56;7608597;32;38709;-82
2023/03/29 19:10:13;;;;;;;9.75;5.10;;;;;;;10.29;40.78;100306.22;7605221;32;37222;-81
2023/03/29 19:14:30;;;;;;;12.20;4.80;;;;;;;10.28;41.03;100308.16;7605055;32;39434;-82
2023/03/29 19:18:46;;;;;;;7.97;4.43;;;;;;;10.11;41.75;100308.22;7605134;32;40513;-82
2023/03/29 19:23:03;;;;;;;9.20;4.70;;;;;;;10.17;41.48;100313.75;7605783;32;37860;-82
2023/03/29 19:27:22;;;;;;;8.00;4.20;;;;;;;10.24;41.60;100306.19;7604954;32;37436;-82
2023/03/29 19:31:39;;;;;;;7.82;3.70;;;;;;;10.31;41.52;100304.06;7604829;32;40012;-82
2023/03/29 19:35:55;;;;;;;5.78;3.58;;;;;;;10.02;40.47;100309.78;7620219;32;40058;-81
2023/03/29 19:40:14;;;;;;;9.38;3.97;;;;;;;10.06;40.62;100310.91;7627551;32;36920;-82
2023/03/29 19:44:30;;;;;;;6.53;3.53;;;;;;;9.96;41.28;100310.78;7622766;32;37263;-82
2023/03/29 19:48:47;;;;;;;6.35;3.40;;;;;;;9.76;41.29;100317.66;7612017;32;39366;-82
2023/03/29 19:53:03;;;;;;;8.50;3.67;;;;;;;9.74;41.36;100308.06;7629634;32;40317;-83
2023/03/29 19:57:20;;;;;;;6.43;3.42;;;;;;;9.96;40.76;100302.63;7625227;32;37919;-83
2023/03/29 20:01:38;;;;;;;5.70;3.70;;;;;;;9.92;42.02;100298.78;7633754;32;37148;-82
2023/03/29 20:05:55;;;;;;;11.35;4.25;;;;;;;10.04;42.28;100302.16;7633785;32;39436;-82
2023/03/29 20:10:12;;;;;;;9.45;4.18;;;;;;;9.88;42.99;100298.47;7623879;32;39765;-81
2023/03/29 20:14:28;;;;;;;9.45;3.62;;;;;;;10.06;42.42;100291.84;7633229;32;37856;-82
2023/03/29 20:18:45;;;;;;;8.50;3.92;;;;;;;9.90;42.30;100293.56;7625208;32;37136;-81
2023/03/29 20:23:03;;;;;;;6.18;3.12;;;;;;;9.94;42.73;100286.53;7607525;32;39424;-81